createdAt,value
2019-05-11T00:01:35.715Z,23.40
2019-05-11T00:03:43.598Z,24.67
2019-05-11T00:05:51.643Z,24.10
2019-05-11T00:07:59.525Z,24.82
2019-05-11T00:10:10.697Z,25.15
2019-05-11T00:12:18.608Z,26.15
2019-05-11T00:14:29.327Z,25.48
2019-05-11T00:16:37.117Z,25.02
2019-05-11T00:18:45.947Z,26.02
2019-05-11T00:20:54.308Z,25.05
2019-05-11T00:23:02.371Z,27.13
2019-05-11T00:25:16.466Z,27.45
2019-05-11T00:27:30.469Z,26.40
2019-05-11T00:29:38.418Z,26.87
2019-05-11T00:32:03.342Z,26.52
2019-05-11T00:34:23.424Z,26.60
2019-05-11T00:36:48.981Z,26.95
2019-05-11T00:39:14.387Z,29.52
2019-05-11T00:41:39.705Z,28.70
2019-05-11T00:44:05.166Z,28.45
2019-05-11T00:46:31.026Z,26.77
2019-05-11T00:48:55.949Z,27.05
2019-05-11T00:51:20.820Z,26.60
2019-05-11T00:53:46.252Z,26.60
2019-05-11T00:56:11.147Z,26.50
2019-05-11T00:58:36.147Z,27.05
2019-05-11T01:01:01.254Z,28.07
2019-05-11T01:03:26.457Z,28.02
2019-05-11T01:05:51.514Z,29.15
2019-05-11T01:08:16.551Z,28.02
2019-05-11T01:10:42.657Z,28.30
2019-05-11T01:13:07.985Z,29.92
2019-05-11T01:15:33.018Z,29.30
2019-05-11T01:17:58.080Z,28.27
2019-05-11T01:20:23.070Z,26.23
2019-05-11T01:22:48.433Z,28.32
2019-05-11T01:25:13.892Z,26.23
2019-05-11T01:27:38.954Z,26.68
2019-05-11T01:30:04.492Z,25.68
2019-05-11T01:32:29.467Z,25.77
2019-05-11T01:34:54.283Z,26.35
2019-05-11T01:37:19.346Z,25.97
2019-05-11T01:39:44.368Z,26.73
2019-05-11T01:42:09.590Z,24.82
2019-05-11T01:44:34.806Z,26.17
2019-05-11T01:47:01.934Z,27.20
2019-05-11T01:49:27.227Z,26.95
2019-05-11T01:51:52.427Z,25.85
2019-05-11T01:54:17.490Z,26.20
2019-05-11T01:56:42.766Z,26.68
2019-05-11T01:59:07.989Z,26.97
2019-05-11T02:01:33.048Z,23.02
2019-05-11T02:03:58.192Z,24.80
2019-05-11T02:06:23.756Z,23.07
2019-05-11T02:08:48.700Z,24.90
2019-05-11T02:11:16.192Z,23.65
2019-05-11T02:13:41.168Z,25.43
2019-05-11T02:16:05.983Z,25.27
2019-05-11T02:18:31.142Z,27.93
2019-05-11T02:20:56.455Z,27.40
2019-05-11T02:23:21.440Z,28.32
2019-05-11T02:25:46.476Z,29.37
2019-05-11T02:28:11.454Z,30.00
2019-05-11T02:30:36.849Z,30.05
2019-05-11T02:33:02.093Z,27.80
2019-05-11T02:35:27.316Z,26.55
2019-05-11T02:37:52.431Z,27.52
2019-05-11T02:40:18.577Z,34.85
2019-05-11T02:42:43.841Z,32.25
2019-05-11T02:45:09.593Z,30.35
2019-05-11T02:47:35.741Z,25.92
2019-05-11T02:50:00.759Z,27.65
2019-05-11T02:52:28.406Z,26.20
2019-05-11T02:54:55.181Z,30.25
2019-05-11T02:57:20.395Z,32.58
2019-05-11T02:59:45.900Z,32.17
2019-05-11T03:02:11.107Z,33.95
2019-05-11T03:04:36.543Z,33.15
2019-05-11T03:07:01.435Z,34.58
2019-05-11T03:09:26.550Z,31.40
2019-05-11T03:11:55.488Z,33.55
2019-05-11T03:14:18.811Z,31.12
2019-05-11T03:16:44.132Z,32.90
2019-05-11T03:19:09.279Z,30.88
2019-05-11T03:21:34.186Z,34.63
2019-05-11T03:23:59.571Z,33.28
2019-05-11T03:26:24.784Z,30.17
2019-05-11T03:28:49.750Z,33.70
2019-05-11T03:31:14.854Z,44.10
2019-05-11T03:33:40.271Z,37.58
2019-05-11T03:36:05.541Z,35.08
2019-05-11T03:38:30.566Z,35.78
2019-05-11T03:40:55.923Z,37.70
2019-05-11T03:43:21.136Z,38.23
2019-05-11T03:45:46.094Z,35.50
2019-05-11T03:48:12.158Z,43.58
2019-05-11T03:50:37.428Z,41.92
2019-05-11T03:53:02.494Z,39.00
2019-05-11T03:55:28.230Z,36.10
2019-05-11T03:57:54.431Z,36.35
2019-05-11T04:00:20.683Z,37.05
2019-05-11T04:02:45.974Z,34.58
2019-05-11T04:05:11.301Z,31.95
2019-05-11T04:07:36.301Z,31.30
2019-05-11T04:10:01.070Z,31.15
2019-05-11T04:12:34.593Z,29.95
2019-05-11T04:14:53.106Z,30.45
2019-05-11T04:17:19.848Z,31.07
2019-05-11T04:19:45.117Z,27.58
2019-05-11T04:22:10.062Z,29.52
2019-05-11T04:24:35.203Z,29.05
2019-05-11T04:27:00.424Z,31.10
2019-05-11T04:29:25.735Z,29.23
2019-05-11T04:31:50.988Z,27.15
2019-05-11T04:34:15.890Z,26.75
2019-05-11T04:36:40.840Z,27.50
2019-05-11T04:39:07.420Z,25.25
2019-05-11T04:41:32.530Z,24.27
2019-05-11T04:43:57.549Z,25.85
2019-05-11T04:46:22.572Z,20.50
2019-05-11T04:48:47.920Z,20.02
2019-05-11T04:51:13.341Z,23.20
2019-05-11T04:53:38.533Z,24.72
2019-05-11T04:56:03.463Z,25.08
2019-05-11T04:58:28.496Z,25.10
2019-05-11T05:00:54.089Z,21.95
2019-05-11T05:03:19.491Z,27.87
2019-05-11T05:05:44.458Z,26.12
2019-05-11T05:08:10.821Z,27.02
2019-05-11T05:10:35.798Z,26.87
2019-05-11T05:13:10.332Z,28.95
2019-05-11T05:15:28.458Z,29.02
2019-05-11T05:17:53.420Z,28.27
2019-05-11T05:20:19.583Z,31.10
2019-05-11T05:22:44.818Z,30.10
2019-05-11T05:25:10.107Z,33.95
2019-05-11T05:27:34.993Z,37.58
2019-05-11T05:30:00.037Z,34.58
2019-05-11T05:32:25.198Z,37.58
2019-05-11T05:34:50.475Z,33.85
2019-05-11T05:37:15.753Z,33.78
2019-05-11T05:39:40.679Z,34.43
2019-05-11T05:42:07.026Z,34.78
2019-05-11T05:44:32.335Z,33.92
2019-05-11T05:46:57.533Z,32.48
2019-05-11T05:49:23.432Z,31.42
2019-05-11T05:51:48.779Z,35.55
2019-05-11T05:54:14.111Z,30.45
2019-05-11T05:56:39.108Z,28.80
2019-05-11T05:59:04.141Z,29.95
2019-05-11T06:01:29.416Z,31.55
2019-05-11T06:03:54.355Z,30.60
2019-05-11T06:06:19.765Z,30.10
2019-05-11T06:08:45.767Z,27.58
2019-05-11T06:11:10.792Z,23.52
2019-05-11T06:13:45.422Z,29.75
2019-05-11T06:16:02.518Z,20.80
2019-05-11T06:18:28.015Z,26.73
2019-05-11T06:20:53.330Z,27.65
2019-05-11T06:23:18.157Z,27.85
2019-05-11T06:25:43.519Z,24.98
2019-05-11T06:27:50.602Z,28.45
2019-05-11T06:29:57.667Z,25.15
2019-05-11T06:32:04.797Z,16.00
2019-05-11T06:34:11.960Z,24.92
2019-05-11T06:36:19.207Z,23.07
2019-05-11T06:38:26.401Z,21.42
2019-05-11T06:40:33.632Z,20.40
2019-05-11T06:42:40.781Z,12.95
2019-05-11T06:44:49.707Z,18.85
2019-05-11T06:46:56.799Z,19.05
2019-05-11T06:49:03.905Z,18.55
2019-05-11T06:51:11.817Z,16.27
2019-05-11T06:53:18.984Z,16.52
2019-05-11T06:55:27.179Z,19.32
2019-05-11T06:57:37.164Z,16.20
2019-05-11T06:59:44.266Z,15.78
2019-05-11T07:01:51.426Z,16.42
2019-05-11T07:03:58.584Z,16.95
2019-05-11T07:06:05.797Z,15.15
2019-05-11T07:08:14.674Z,13.88
2019-05-11T07:10:21.739Z,16.75
2019-05-11T07:12:28.985Z,16.05
2019-05-11T07:14:36.320Z,16.48
2019-05-11T07:16:43.483Z,14.45
2019-05-11T07:18:50.600Z,15.08
2019-05-11T07:20:59.226Z,13.65
2019-05-11T07:23:06.355Z,14.33
2019-05-11T07:25:13.875Z,13.48
2019-05-11T07:27:20.973Z,15.63
2019-05-11T07:29:28.101Z,13.13
2019-05-11T07:31:35.764Z,13.35
2019-05-11T07:33:43.161Z,12.45
2019-05-11T07:35:50.473Z,13.03
2019-05-11T07:37:58.252Z,12.05
2019-05-11T07:40:08.272Z,12.10
2019-05-11T07:42:18.236Z,11.38
2019-05-11T07:44:37.488Z,11.70
2019-05-11T07:46:37.700Z,9.55
2019-05-11T07:48:44.922Z,8.90
2019-05-11T07:50:52.099Z,5.60
2019-05-11T07:53:00.048Z,7.25
2019-05-11T07:55:08.517Z,9.73
2019-05-11T07:57:18.643Z,10.45
2019-05-11T07:59:28.746Z,10.55
2019-05-11T08:01:38.381Z,10.05
2019-05-11T08:03:48.297Z,10.03
2019-05-11T08:05:58.262Z,8.28
2019-05-11T08:08:05.714Z,8.98
2019-05-11T08:10:14.230Z,8.45
2019-05-11T08:12:22.174Z,7.78
2019-05-11T08:14:29.923Z,7.62
2019-05-11T08:16:39.059Z,8.73
2019-05-11T08:18:49.156Z,8.60
2019-05-11T08:20:58.353Z,9.25
2019-05-11T08:23:08.909Z,8.55
2019-05-11T08:25:18.139Z,7.72
2019-05-11T08:27:28.605Z,7.37
2019-05-11T08:29:38.369Z,7.78
2019-05-11T08:31:45.629Z,8.35
2019-05-11T08:33:53.227Z,8.50
2019-05-11T08:36:01.420Z,8.43
2019-05-11T08:38:09.523Z,8.05
2019-05-11T08:40:20.281Z,7.80
2019-05-11T08:42:29.045Z,7.17
2019-05-11T08:44:37.959Z,8.18
2019-05-11T08:46:47.692Z,7.22
2019-05-11T08:48:54.947Z,7.72
2019-05-11T08:51:03.324Z,8.65
2019-05-11T08:53:11.802Z,9.00
2019-05-11T08:55:20.048Z,10.05
2019-05-11T08:57:28.520Z,7.62
2019-05-11T08:59:39.835Z,8.78
2019-05-11T09:01:48.426Z,8.65
2019-05-11T09:03:58.309Z,6.30
2019-05-11T09:08:28.456Z,9.20
2019-05-11T09:10:39.684Z,7.62
2019-05-11T09:12:48.621Z,8.35
2019-05-11T09:14:57.998Z,8.05
2019-05-11T09:17:07.675Z,8.08
2019-05-11T09:19:17.654Z,8.23
2019-05-11T09:21:24.691Z,6.37
2019-05-11T09:23:37.291Z,6.70
2019-05-11T09:25:41.343Z,5.42
2019-05-11T09:27:58.899Z,6.58
2019-05-11T09:30:13.824Z,6.72
2019-05-11T09:32:29.847Z,6.78
2019-05-11T09:34:42.844Z,6.33
2019-05-11T09:36:59.570Z,5.55
2019-05-11T09:39:19.607Z,5.85
2019-05-11T09:41:30.276Z,5.80
2019-05-11T09:43:48.344Z,5.25
2019-05-11T09:46:01.897Z,5.20
2019-05-11T09:48:19.044Z,3.10
2019-05-11T09:50:32.821Z,6.15
2019-05-11T09:52:49.329Z,4.60
2019-05-11T09:55:01.868Z,6.03
2019-05-11T09:57:09.936Z,6.33
2019-05-11T09:59:18.060Z,7.30
2019-05-11T10:01:26.040Z,7.00
2019-05-11T10:03:34.068Z,6.25
2019-05-11T10:05:42.194Z,6.05
2019-05-11T10:07:50.222Z,6.80
2019-05-11T10:09:58.574Z,5.03
2019-05-11T10:12:08.212Z,5.17
2019-05-11T10:14:19.139Z,6.25
2019-05-11T10:16:38.323Z,6.03
2019-05-11T10:18:49.571Z,6.00
2019-05-11T10:21:08.081Z,5.92
2019-05-11T10:23:23.177Z,5.75
2019-05-11T10:25:39.113Z,5.95
2019-05-11T10:27:53.185Z,5.40
2019-05-11T10:30:11.405Z,5.90
2019-05-11T10:32:24.973Z,5.62
2019-05-11T10:34:39.604Z,6.08
2019-05-11T10:36:54.309Z,5.60
2019-05-11T10:39:10.692Z,5.65
2019-05-11T10:41:24.750Z,5.95
2019-05-11T10:43:38.440Z,5.90
2019-05-11T10:45:51.904Z,5.72
2019-05-11T10:48:10.695Z,5.67
2019-05-11T10:50:24.224Z,6.25
2019-05-11T10:52:37.864Z,6.22
2019-05-11T10:54:47.647Z,5.42
2019-05-11T10:56:54.917Z,5.58
2019-05-11T10:59:02.417Z,4.85
2019-05-11T11:01:11.679Z,5.00
2019-05-11T11:03:19.876Z,4.92
2019-05-11T11:05:28.099Z,5.28
2019-05-11T11:07:38.513Z,5.08
2019-05-11T11:09:49.996Z,4.62
2019-05-11T11:11:58.077Z,4.40
2019-05-11T11:14:09.150Z,5.72
2019-05-11T11:16:36.931Z,5.75
2019-05-11T11:18:41.076Z,5.00
2019-05-11T11:20:58.300Z,4.83
2019-05-11T11:23:05.807Z,4.30
2019-05-11T11:25:14.016Z,4.28
2019-05-11T11:27:21.816Z,4.65
2019-05-11T11:29:29.395Z,4.40
2019-05-11T11:31:38.020Z,4.72
2019-05-11T11:33:45.307Z,5.30
2019-05-11T11:35:53.138Z,5.20
2019-05-11T11:38:00.984Z,4.83
2019-05-11T11:40:17.692Z,4.67
2019-05-11T11:42:29.333Z,4.28
2019-05-11T11:44:39.955Z,4.08
2019-05-11T11:46:59.022Z,5.10
2019-05-11T11:49:12.719Z,4.05
2019-05-11T11:51:28.630Z,4.12
2019-05-11T11:53:42.122Z,5.15
2019-05-11T11:55:55.908Z,3.98
2019-05-11T11:58:10.801Z,3.70
2019-05-11T12:00:24.380Z,3.75
2019-05-11T12:02:38.909Z,4.00
2019-05-11T12:04:59.194Z,4.20
2019-05-11T12:07:12.143Z,4.00
2019-05-11T12:09:21.408Z,4.10
2019-05-11T12:11:29.488Z,4.35
2019-05-11T12:13:39.229Z,3.90
2019-05-11T12:15:48.154Z,4.40
2019-05-11T12:17:55.406Z,4.20
2019-05-11T12:20:02.827Z,4.20
2019-05-11T12:22:09.895Z,4.08
2019-05-11T12:24:18.734Z,4.08
2019-05-11T12:26:28.037Z,3.80
2019-05-11T12:28:38.237Z,4.20
2019-05-11T12:30:51.730Z,3.77
2019-05-11T12:33:08.272Z,4.30
2019-05-11T12:35:17.988Z,3.77
2019-05-11T12:37:25.240Z,3.72
2019-05-11T12:39:32.543Z,3.58
2019-05-11T12:41:41.482Z,3.52
2019-05-11T12:43:49.099Z,3.40
2019-05-11T12:45:58.557Z,3.47
2019-05-11T12:48:05.279Z,3.40
2019-05-11T12:50:14.000Z,3.37
2019-05-11T12:52:22.423Z,3.10
2019-05-11T12:54:38.567Z,3.20
2019-05-11T12:56:49.021Z,3.30
2019-05-11T12:58:58.212Z,3.30
2019-05-11T13:01:05.766Z,2.90
2019-05-11T13:03:12.962Z,3.45
2019-05-11T13:05:20.532Z,3.52
2019-05-11T13:07:28.472Z,3.65
2019-05-11T13:09:37.916Z,3.55
2019-05-11T13:11:44.577Z,3.55
2019-05-11T13:13:51.643Z,3.60
2019-05-11T13:16:08.734Z,3.58
2019-05-11T13:18:18.411Z,3.80
2019-05-11T13:20:28.551Z,3.98
2019-05-11T13:22:35.375Z,3.65
2019-05-11T13:24:42.447Z,3.77
2019-05-11T13:26:49.491Z,3.45
2019-05-11T13:28:58.537Z,3.67
2019-05-11T13:31:08.063Z,3.80
2019-05-11T13:33:14.710Z,4.00
2019-05-11T13:35:22.476Z,3.92
2019-05-11T13:37:38.465Z,4.35
2019-05-11T13:39:48.670Z,4.33
2019-05-11T13:42:05.414Z,4.15
2019-05-11T13:44:18.806Z,4.83
2019-05-11T13:46:28.327Z,3.80
2019-05-11T13:48:38.498Z,4.40
2019-05-11T13:50:47.996Z,4.67
2019-05-11T13:52:55.426Z,4.33
2019-05-11T13:55:02.911Z,4.30
2019-05-11T13:57:12.373Z,4.12
2019-05-11T13:59:23.344Z,4.50
2019-05-11T14:01:31.482Z,4.65
2019-05-11T14:03:38.880Z,4.40
2019-05-11T14:05:48.995Z,4.53
2019-05-11T14:07:56.050Z,12.00
2019-05-11T14:10:03.445Z,6.30
2019-05-11T14:12:10.799Z,5.47
2019-05-11T14:14:18.642Z,5.60
2019-05-11T14:16:27.731Z,5.05
2019-05-11T14:18:35.823Z,4.30
2019-05-11T14:20:43.342Z,3.50
2019-05-11T14:22:51.479Z,3.50
2019-05-11T14:24:59.384Z,3.65
2019-05-11T14:27:12.599Z,3.62
2019-05-11T14:29:28.449Z,4.47
2019-05-11T14:31:41.946Z,3.50
2019-05-11T14:33:58.760Z,3.98
2019-05-11T14:36:18.044Z,3.47
2019-05-11T14:38:31.972Z,3.35
2019-05-11T14:40:42.976Z,3.75
2019-05-11T14:42:58.035Z,3.33
2019-05-11T14:45:13.402Z,3.08
2019-05-11T14:47:28.262Z,3.12
2019-05-11T14:49:45.640Z,3.12
2019-05-11T14:51:59.721Z,2.90
2019-05-11T14:54:18.842Z,3.12
2019-05-11T14:56:31.431Z,3.17
2019-05-11T14:58:49.307Z,2.85
2019-05-11T15:01:01.233Z,3.17
2019-05-11T15:03:15.107Z,3.30
2019-05-11T15:05:28.311Z,2.80
2019-05-11T15:07:38.419Z,2.90
2019-05-11T15:09:48.064Z,3.35
2019-05-11T15:11:58.096Z,3.27
2019-05-11T15:14:08.154Z,3.50
2019-05-11T15:16:18.457Z,3.60
2019-05-11T15:18:38.005Z,3.83
2019-05-11T15:20:39.057Z,3.35
2019-05-11T15:22:48.618Z,3.35
2019-05-11T15:24:58.784Z,3.87
2019-05-11T15:27:08.178Z,4.37
2019-05-11T15:29:18.101Z,3.35
2019-05-11T15:31:27.829Z,4.08
2019-05-11T15:33:38.944Z,4.40
2019-05-11T15:35:54.058Z,4.55
2019-05-11T15:38:08.869Z,8.23
2019-05-11T15:40:28.782Z,3.83
2019-05-11T15:42:42.733Z,3.47
2019-05-11T15:44:58.657Z,4.08
2019-05-11T15:47:14.117Z,5.08
2019-05-11T15:49:24.520Z,4.47
2019-05-11T15:51:41.374Z,3.80
2019-05-11T15:53:58.702Z,3.25
2019-05-11T15:56:09.071Z,3.47
2019-05-11T15:58:21.502Z,3.70
2019-05-11T16:00:26.787Z,3.75
2019-05-11T16:02:38.248Z,4.10
2019-05-11T16:04:45.044Z,4.08
2019-05-11T16:06:53.559Z,4.12
2019-05-11T16:09:00.993Z,4.10
2019-05-11T16:11:09.361Z,4.10
2019-05-11T16:13:18.064Z,4.10
2019-05-11T16:15:27.738Z,4.17
2019-05-11T16:17:40.089Z,4.50
2019-05-11T16:19:48.924Z,4.33
2019-05-11T16:22:00.777Z,4.50
2019-05-11T16:24:14.542Z,4.40
2019-05-11T16:26:28.852Z,4.08
2019-05-11T16:28:42.500Z,3.52
2019-05-11T16:30:59.166Z,3.83
2019-05-11T16:33:13.020Z,4.47
2019-05-11T16:35:28.612Z,4.60
2019-05-11T16:37:42.238Z,4.95
2019-05-11T16:40:00.343Z,5.28
2019-05-11T16:42:10.446Z,4.90
2019-05-11T16:44:19.313Z,6.70
2019-05-11T16:46:28.442Z,4.87
2019-05-11T16:48:35.215Z,4.70
2019-05-11T16:50:42.327Z,4.67
2019-05-11T16:52:49.472Z,5.08
2019-05-11T16:54:58.352Z,4.62
2019-05-11T16:57:08.638Z,4.17
2019-05-11T16:59:18.222Z,4.80
2019-05-11T17:01:25.667Z,5.40
2019-05-11T17:03:32.774Z,5.00
2019-05-11T17:05:48.801Z,4.87
2019-05-11T17:07:58.937Z,3.72
2019-05-11T17:10:12.293Z,4.20
2019-05-11T17:12:25.470Z,4.10
2019-05-11T17:14:40.336Z,4.80
2019-05-11T17:17:05.323Z,4.90
2019-05-11T17:19:14.271Z,4.80
2019-05-11T17:21:21.350Z,5.65
2019-05-11T17:23:30.965Z,13.25
2019-05-11T17:25:37.956Z,11.85
2019-05-11T17:27:45.282Z,10.48
2019-05-11T17:29:53.415Z,10.05
2019-05-11T17:32:00.609Z,9.85
2019-05-11T17:34:09.112Z,8.23
2019-05-11T17:36:18.528Z,9.48
2019-05-11T17:38:28.156Z,115.80
2019-05-11T17:40:41.433Z,152.40
2019-05-11T17:42:58.506Z,35.00
2019-05-11T17:45:11.895Z,13.80
2019-05-11T17:47:24.776Z,10.88
2019-05-11T17:49:38.505Z,12.78
2019-05-11T17:51:52.161Z,23.47
2019-05-11T17:54:07.633Z,23.77
2019-05-11T17:56:19.984Z,33.48
2019-05-11T17:58:38.039Z,33.40
2019-05-11T18:00:51.326Z,23.40
2019-05-11T18:03:11.092Z,23.85
2019-05-11T18:05:19.883Z,17.65
2019-05-11T18:07:32.895Z,23.05
2019-05-11T18:09:39.970Z,22.07
2019-05-11T18:11:48.255Z,15.05
2019-05-11T18:13:55.404Z,18.05
2019-05-11T18:16:02.629Z,23.00
2019-05-11T18:18:09.806Z,25.32
2019-05-11T18:20:20.909Z,39.98
2019-05-11T18:22:28.354Z,53.55
2019-05-11T18:24:34.794Z,73.02
2019-05-11T18:26:51.240Z,45.70
2019-05-11T18:29:04.444Z,41.37
2019-05-11T18:31:18.145Z,84.55
2019-05-11T18:33:31.592Z,56.60
2019-05-11T18:35:44.838Z,54.35
2019-05-11T18:38:00.811Z,45.63
2019-05-11T18:40:18.729Z,56.48
2019-05-11T18:42:31.860Z,61.18
2019-05-11T18:44:48.323Z,53.90
2019-05-11T18:47:01.198Z,53.30
2019-05-11T18:49:17.922Z,57.62
2019-05-11T18:51:29.135Z,65.40
2019-05-11T18:53:45.228Z,53.95
2019-05-11T18:55:54.183Z,55.30
2019-05-11T18:58:01.314Z,65.35
2019-05-11T19:00:10.191Z,61.63
2019-05-11T19:02:17.298Z,67.90
2019-05-11T19:04:24.377Z,58.87
2019-05-11T19:06:32.093Z,61.33
2019-05-11T19:08:39.218Z,61.15
2019-05-11T19:10:48.494Z,60.98
2019-05-11T19:12:55.075Z,53.70
2019-05-11T19:15:02.201Z,50.73
2019-05-11T19:17:18.561Z,53.28
2019-05-11T19:19:27.698Z,57.00
2019-05-11T19:21:34.772Z,60.63
2019-05-11T19:23:41.850Z,57.70
2019-05-11T19:25:49.038Z,61.88
2019-05-11T19:27:58.900Z,72.15
2019-05-11T19:30:08.774Z,74.20
2019-05-11T19:32:16.061Z,65.22
2019-05-11T19:34:23.153Z,63.95
2019-05-11T19:36:30.242Z,52.15
2019-05-11T19:38:40.316Z,46.60
2019-05-11T19:40:58.605Z,45.70
2019-05-11T19:43:11.552Z,45.63
2019-05-11T19:45:25.016Z,46.35
2019-05-11T19:47:40.946Z,58.95
2019-05-11T19:49:53.979Z,49.95
2019-05-11T19:52:08.564Z,57.23
2019-05-11T19:54:22.179Z,52.60
2019-05-11T19:56:38.608Z,59.70
2019-05-11T19:58:51.861Z,51.63
2019-05-11T20:01:00.751Z,51.55
2019-05-11T20:03:09.301Z,44.25
2019-05-11T20:05:18.421Z,45.17
2019-05-11T20:07:25.690Z,56.00
2019-05-11T20:09:32.761Z,54.38
2019-05-11T20:11:40.848Z,62.25
2019-05-11T20:13:48.374Z,48.92
2019-05-11T20:15:57.658Z,51.88
2019-05-11T20:18:07.988Z,51.10
2019-05-11T20:20:21.103Z,46.68
2019-05-11T20:22:33.861Z,49.40
2019-05-11T20:24:47.680Z,49.85
2019-05-11T20:26:54.811Z,45.65
2019-05-11T20:29:01.970Z,48.35
2019-05-11T20:31:09.075Z,47.73
2019-05-11T20:33:18.934Z,61.65
2019-05-11T20:35:27.792Z,51.13
2019-05-11T20:37:34.885Z,52.27
2019-05-11T20:39:42.056Z,47.40
2019-05-11T20:41:49.125Z,45.38
2019-05-11T20:44:02.563Z,45.67
2019-05-11T20:46:15.670Z,42.73
2019-05-11T20:48:24.566Z,42.15
2019-05-11T20:50:31.801Z,44.35
2019-05-11T20:52:40.616Z,44.98
2019-05-11T20:54:48.976Z,42.25
2019-05-11T20:56:58.518Z,43.40
2019-05-11T20:59:04.994Z,43.90
2019-05-11T21:01:12.072Z,45.70
2019-05-11T21:03:19.192Z,46.58
2019-05-11T21:05:28.077Z,49.80
2019-05-11T21:07:38.496Z,52.53
2019-05-11T21:09:44.955Z,51.28
2019-05-11T21:11:53.930Z,54.45
2019-05-11T21:14:00.994Z,55.15
2019-05-11T21:16:08.626Z,55.10
2019-05-11T21:18:18.240Z,59.77
2019-05-11T21:20:24.755Z,56.05
2019-05-11T21:22:31.954Z,53.35
2019-05-11T21:24:39.093Z,52.90
2019-05-11T21:26:53.277Z,57.90
2019-05-11T21:29:08.690Z,60.17
2019-05-11T21:31:24.648Z,52.48
2019-05-11T21:33:33.295Z,63.13
2019-05-11T21:35:49.364Z,62.05
2019-05-11T21:38:05.225Z,47.35
2019-05-11T21:40:22.852Z,46.77
2019-05-11T21:42:32.905Z,46.77
2019-05-11T21:44:49.018Z,46.98
2019-05-11T21:47:03.482Z,46.00
2019-05-11T21:49:18.453Z,44.38
2019-05-11T21:51:31.661Z,43.73
2019-05-11T21:53:48.667Z,42.35
2019-05-11T21:55:59.769Z,40.98
2019-05-11T21:58:12.824Z,38.10
2019-05-11T22:00:30.728Z,41.40
2019-05-11T22:02:48.827Z,37.33
2019-05-11T22:05:03.324Z,37.20
2019-05-11T22:07:23.084Z,36.03
2019-05-11T22:09:34.769Z,35.90
2019-05-11T22:11:48.653Z,36.75
2019-05-11T22:14:03.444Z,37.38
2019-05-11T22:16:16.946Z,37.75
2019-05-11T22:18:32.937Z,36.23
2019-05-11T22:20:48.494Z,36.05
2019-05-11T22:23:01.035Z,34.33
2019-05-11T22:25:18.241Z,33.10
2019-05-11T22:27:28.726Z,32.25
2019-05-11T22:29:38.205Z,31.93
2019-05-11T22:31:45.265Z,32.10
2019-05-11T22:33:52.405Z,31.77
2019-05-11T22:35:59.603Z,31.27
2019-05-11T22:38:08.457Z,30.75
2019-05-11T22:40:15.890Z,32.05
2019-05-11T22:42:24.003Z,31.82
2019-05-11T22:44:31.241Z,32.10
2019-05-11T22:46:41.486Z,31.12
2019-05-11T22:48:54.589Z,30.50
2019-05-11T22:51:01.656Z,28.65
2019-05-11T22:53:11.479Z,27.73
2019-05-11T22:55:18.791Z,26.10
2019-05-11T22:57:26.620Z,25.88
2019-05-11T22:59:33.725Z,24.37
2019-05-11T23:01:40.808Z,24.37
2019-05-11T23:03:49.692Z,26.27
2019-05-11T23:05:58.199Z,24.82
2019-05-11T23:08:07.639Z,23.55
2019-05-11T23:10:17.705Z,23.83
2019-05-11T23:12:28.506Z,23.80
2019-05-11T23:14:37.686Z,22.32
2019-05-11T23:16:45.106Z,23.25
2019-05-11T23:18:54.056Z,22.25
2019-05-11T23:21:01.155Z,22.58
2019-05-11T23:23:09.060Z,22.80
2019-05-11T23:25:22.339Z,23.73
2019-05-11T23:27:39.342Z,23.92
2019-05-11T23:29:52.214Z,23.15
2019-05-11T23:31:59.412Z,22.87
2019-05-11T23:34:08.329Z,23.38
2019-05-11T23:36:15.311Z,23.27
2019-05-11T23:38:22.443Z,22.27
2019-05-11T23:40:29.824Z,21.25
2019-05-11T23:42:38.064Z,21.07
2019-05-11T23:44:48.366Z,20.25
2019-05-11T23:46:55.621Z,20.23
2019-05-11T23:49:02.683Z,20.48
2019-05-11T23:51:17.969Z,20.72
2019-05-11T23:53:24.475Z,20.80
2019-05-11T23:55:31.544Z,21.48
2019-05-11T23:57:38.637Z,21.10
2019-05-11T23:59:47.719Z,21.48
